sensor_id;sensor_type;location;lat;lon;timestamp;pressure;altitude;pressure_sealevel;temperature;humidity
14612;BME280;7392;52.078;11.650;2022-12-07T00:01:18;100689.66;;;-1.13;100.00
14612;BME280;7392;52.078;11.650;2022-12-07T00:03:47;100692.25;;;-1.13;100.00
14612;BME280;7392;52.078;11.650;2022-12-07T00:06:16;100676.50;;;-1.16;100.00
14612;BME280;7392;52.078;11.650;2022-12-07T00:08:45;100670.31;;;-1.18;100.00
14612;BME280;7392;52.078;11.650;2022-12-07T00:11:17;100665.03;;;-1.20;100.00
14612;BME280;7392;52.078;11.650;2022-12-07T00:13:45;100662.38;;;-1.21;100.00
14612;BME280;7392;52.078;11.650;2022-12-07T00:16:15;100664.13;;;-1.20;100.00
14612;BME280;7392;52.078;11.650;2022-12-07T00:18:44;100668.41;;;-1.22;100.00
14612;BME280;7392;52.078;11.650;2022-12-07T00:21:13;100660.50;;;-1.24;100.00
14612;BME280;7392;52.078;11.650;2022-12-07T00:23:43;100657.97;;;-1.22;100.00
14612;BME280;7392;52.078;11.650;2022-12-07T00:26:12;100664.91;;;-1.23;100.00
14612;BME280;7392;52.078;11.650;2022-12-07T00:28:44;100655.38;;;-1.22;100.00
14612;BME280;7392;52.078;11.650;2022-12-07T00:31:14;100643.22;;;-1.22;100.00
14612;BME280;7392;52.078;11.650;2022-12-07T00:33:42;100639.72;;;-1.22;100.00
14612;BME280;7392;52.078;11.650;2022-12-07T00:36:11;100641.63;;;-1.18;100.00
14612;BME280;7392;52.078;11.650;2022-12-07T00:38:40;100633.88;;;-1.17;100.00
14612;BME280;7392;52.078;11.650;2022-12-07T00:41:10;100636.63;;;-1.14;100.00
14612;BME280;7392;52.078;11.650;2022-12-07T00:43:39;100632.22;;;-1.15;100.00
14612;BME280;7392;52.078;11.650;2022-12-07T00:46:08;100621.06;;;-1.12;100.00
14612;BME280;7392;52.078;11.650;2022-12-07T00:48:36;100622.88;;;-1.09;100.00
14612;BME280;7392;52.078;11.650;2022-12-07T00:51:05;100610.84;;;-1.07;100.00
14612;BME280;7392;52.078;11.650;2022-12-07T00:53:34;100615.28;;;-1.05;100.00
14612;BME280;7392;52.078;11.650;2022-12-07T00:56:07;100614.47;;;-1.04;100.00
14612;BME280;7392;52.078;11.650;2022-12-07T00:58:35;100605.94;;;-1.00;100.00
14612;BME280;7392;52.078;11.650;2022-12-07T01:01:05;100606.88;;;-0.98;100.00
14612;BME280;7392;52.078;11.650;2022-12-07T01:03:35;100602.63;;;-0.96;100.00
14612;BME280;7392;52.078;11.650;2022-12-07T01:06:04;100608.81;;;-0.93;100.00
14612;BME280;7392;52.078;11.650;2022-12-07T01:08:33;100605.34;;;-0.92;100.00
14612;BME280;7392;52.078;11.650;2022-12-07T01:11:04;100602.00;;;-0.90;100.00
14612;BME280;7392;52.078;11.650;2022-12-07T01:13:32;100601.22;;;-0.87;100.00
14612;BME280;7392;52.078;11.650;2022-12-07T01:16:02;100604.75;;;-0.87;100.00
14612;BME280;7392;52.078;11.650;2022-12-07T01:18:32;100597.88;;;-0.85;100.00
14612;BME280;7392;52.078;11.650;2022-12-07T01:21:03;100608.38;;;-0.83;100.00
14612;BME280;7392;52.078;11.650;2022-12-07T01:23:32;100604.97;;;-0.81;100.00
14612;BME280;7392;52.078;11.650;2022-12-07T01:26:03;100602.56;;;-0.76;100.00
14612;BME280;7392;52.078;11.650;2022-12-07T01:28:32;100604.41;;;-0.73;100.00
14612;BME280;7392;52.078;11.650;2022-12-07T01:31:01;100607.06;;;-0.72;100.00
14612;BME280;7392;52.078;11.650;2022-12-07T01:33:32;100608.88;;;-0.71;100.00
14612;BME280;7392;52.078;11.650;2022-12-07T01:36:02;100604.66;;;-0.67;100.00
14612;BME280;7392;52.078;11.650;2022-12-07T01:38:30;100598.63;;;-0.66;100.00
14612;BME280;7392;52.078;11.650;2022-12-07T01:40:59;100588.31;;;-0.63;100.00
14612;BME280;7392;52.078;11.650;2022-12-07T01:43:30;100587.47;;;-0.62;100.00
14612;BME280;7392;52.078;11.650;2022-12-07T01:45:58;100590.16;;;-0.61;100.00
14612;BME280;7392;52.078;11.650;2022-12-07T01:48:30;100587.66;;;-0.58;100.00
14612;BME280;7392;52.078;11.650;2022-12-07T01:51:04;100585.13;;;-0.56;100.00
14612;BME280;7392;52.078;11.650;2022-12-07T01:53:35;100579.97;;;-0.54;100.00
14612;BME280;7392;52.078;11.650;2022-12-07T01:56:04;100580.84;;;-0.54;100.00
14612;BME280;7392;52.078;11.650;2022-12-07T01:58:33;100580.03;;;-0.53;100.00
14612;BME280;7392;52.078;11.650;2022-12-07T02:01:01;100574.81;;;-0.53;100.00
14612;BME280;7392;52.078;11.650;2022-12-07T02:03:32;100562.66;;;-0.52;100.00
14612;BME280;7392;52.078;11.650;2022-12-07T02:06:04;100560.97;;;-0.50;100.00
14612;BME280;7392;52.078;11.650;2022-12-07T02:08:33;100556.66;;;-0.50;100.00
14612;BME280;7392;52.078;11.650;2022-12-07T02:11:01;100555.81;;;-0.49;100.00
14612;BME280;7392;52.078;11.650;2022-12-07T02:13:32;100560.25;;;-0.46;100.00
14612;BME280;7392;52.078;11.650;2022-12-07T02:16:09;100549.81;;;-0.46;100.00
14612;BME280;7392;52.078;11.650;2022-12-07T02:18:51;100548.13;;;-0.46;100.00
14612;BME280;7392;52.078;11.650;2022-12-07T02:21:30;100535.06;;;-0.46;100.00
14612;BME280;7392;52.078;11.650;2022-12-07T02:24:25;100537.75;;;-0.44;100.00
14612;BME280;7392;52.078;11.650;2022-12-07T02:27:24;100535.19;;;-0.43;100.00
14612;BME280;7392;52.078;11.650;2022-12-07T02:30:00;100525.66;;;-0.42;100.00
14612;BME280;7392;52.078;11.650;2022-12-07T02:32:41;100520.50;;;-0.41;100.00
14612;BME280;7392;52.078;11.650;2022-12-07T02:35:12;100519.63;;;-0.40;100.00
14612;BME280;7392;52.078;11.650;2022-12-07T02:37:50;100515.41;;;-0.38;100.00
14612;BME280;7392;52.078;11.650;2022-12-07T02:40:25;100518.03;;;-0.36;100.00
14612;BME280;7392;52.078;11.650;2022-12-07T02:42:58;100513.78;;;-0.34;100.00
14612;BME280;7392;52.078;11.650;2022-12-07T02:45:31;100502.50;;;-0.33;100.00
14612;BME280;7392;52.078;11.650;2022-12-07T02:48:02;100503.44;;;-0.31;100.00
14612;BME280;7392;52.078;11.650;2022-12-07T02:50:31;100500.06;;;-0.28;100.00
14612;BME280;7392;52.078;11.650;2022-12-07T02:52:59;100488.81;;;-0.27;100.00
14612;BME280;7392;52.078;11.650;2022-12-07T02:55:30;100493.28;;;-0.23;100.00
14612;BME280;7392;52.078;11.650;2022-12-07T02:58:10;100496.78;;;-0.23;100.00
14612;BME280;7392;52.078;11.650;2022-12-07T03:00:51;100494.25;;;-0.21;100.00
14612;BME280;7392;52.078;11.650;2022-12-07T03:03:20;100493.47;;;-0.18;100.00
14612;BME280;7392;52.078;11.650;2022-12-07T03:06:04;100493.53;;;-0.17;100.00
14612;BME280;7392;52.078;11.650;2022-12-07T03:08:42;100487.53;;;-0.14;100.00
14612;BME280;7392;52.078;11.650;2022-12-07T03:11:14;100485.03;;;-0.11;100.00
14612;BME280;7392;52.078;11.650;2022-12-07T03:13:49;100485.16;;;-0.08;100.00
14612;BME280;7392;52.078;11.650;2022-12-07T03:16:25;100480.81;;;-0.08;100.00
14612;BME280;7392;52.078;11.650;2022-12-07T03:18:57;100478.25;;;-0.06;100.00
14612;BME280;7392;52.078;11.650;2022-12-07T03:21:28;100480.06;;;-0.04;100.00
14612;BME280;7392;52.078;11.650;2022-12-07T03:24:00;100467.94;;;-0.03;100.00
14612;BME280;7392;52.078;11.650;2022-12-07T03:26:33;100469.81;;;0.01;100.00
14612;BME280;7392;52.078;11.650;2022-12-07T03:29:05;100470.81;;;0.05;100.00
14612;BME280;7392;52.078;11.650;2022-12-07T03:31:38;100461.28;;;0.07;100.00
14612;BME280;7392;52.078;11.650;2022-12-07T03:34:11;100461.41;;;0.10;100.00
14612;BME280;7392;52.078;11.650;2022-12-07T03:36:44;100465.88;;;0.12;100.00
14612;BME280;7392;52.078;11.650;2022-12-07T03:39:19;100459.84;;;0.15;100.00
14612;BME280;7392;52.078;11.650;2022-12-07T03:41:50;100455.56;;;0.17;100.00
14612;BME280;7392;52.078;11.650;2022-12-07T03:44:20;100453.06;;;0.20;100.00
14612;BME280;7392;52.078;11.650;2022-12-07T03:46:53;100447.94;;;0.23;100.00
14612;BME280;7392;52.078;11.650;2022-12-07T03:49:31;100451.63;;;0.28;100.00
14612;BME280;7392;52.078;11.650;2022-12-07T03:52:03;100447.31;;;0.30;100.00
14612;BME280;7392;52.078;11.650;2022-12-07T03:54:39;100441.31;;;0.33;100.00
14612;BME280;7392;52.078;11.650;2022-12-07T03:57:10;100435.34;;;0.37;100.00
14612;BME280;7392;52.078;11.650;2022-12-07T03:59:39;100438.09;;;0.40;100.00
14612;BME280;7392;52.078;11.650;2022-12-07T04:02:12;100442.63;;;0.46;100.00
14612;BME280;7392;52.078;11.650;2022-12-07T04:04:42;100440.22;;;0.52;100.00
14612;BME280;7392;52.078;11.650;2022-12-07T04:07:10;100431.75;;;0.59;100.00
14612;BME280;7392;52.078;11.650;2022-12-07T04:09:39;100441.50;;;0.65;100.00
14612;BME280;7392;52.078;11.650;2022-12-07T04:12:07;100448.69;;;0.70;100.00
14612;BME280;7392;52.078;11.650;2022-12-07T04:14:35;100445.31;;;0.74;100.00
14612;BME280;7392;52.078;11.650;2022-12-07T04:17:03;100441.13;;;0.80;100.00
14612;BME280;7392;52.078;11.650;2022-12-07T04:19:33;100441.28;;;0.84;100.00
14612;BME280;7392;52.078;11.650;2022-12-07T04:22:03;100432.69;;;0.88;100.00
14612;BME280;7392;52.078;11.650;2022-12-07T04:24:31;100439.88;;;0.94;100.00
14612;BME280;7392;52.078;11.650;2022-12-07T04:26:59;100435.63;;;0.98;100.00
14612;BME280;7392;52.078;11.650;2022-12-07T04:29:27;100433.94;;;1.00;100.00
14612;BME280;7392;52.078;11.650;2022-12-07T04:31:55;100427.06;;;1.03;100.00
14612;BME280;7392;52.078;11.650;2022-12-07T04:34:23;100421.06;;;1.07;100.00
14612;BME280;7392;52.078;11.650;2022-12-07T04:36:52;100423.78;;;1.10;100.00
14612;BME280;7392;52.078;11.650;2022-12-07T04:39:22;100419.53;;;1.14;100.00
14612;BME280;7392;52.078;11.650;2022-12-07T04:41:50;100416.09;;;1.15;100.00
14612;BME280;7392;52.078;11.650;2022-12-07T04:44:19;100405.69;;;1.17;100.00
14612;BME280;7392;52.078;11.650;2022-12-07T04:46:47;100408.34;;;1.18;100.00
14612;BME280;7392;52.078;11.650;2022-12-07T04:49:16;100411.84;;;1.19;100.00
14612;BME280;7392;52.078;11.650;2022-12-07T04:51:44;100409.22;;;1.19;100.00
14612;BME280;7392;52.078;11.650;2022-12-07T04:54:15;100407.44;;;1.18;100.00
14612;BME280;7392;52.078;11.650;2022-12-07T04:56:43;100404.81;;;1.18;100.00
14612;BME280;7392;52.078;11.650;2022-12-07T04:59:12;100406.59;;;1.19;100.00
14612;BME280;7392;52.078;11.650;2022-12-07T05:01:40;100407.53;;;1.21;100.00
14612;BME280;7392;52.078;11.650;2022-12-07T05:04:09;100401.47;;;1.22;100.00
14612;BME280;7392;52.078;11.650;2022-12-07T05:06:37;100395.44;;;1.24;100.00
14612;BME280;7392;52.078;11.650;2022-12-07T05:09:05;100385.88;;;1.25;100.00
14612;BME280;7392;52.078;11.650;2022-12-07T05:11:34;100393.78;;;1.28;100.00
14612;BME280;7392;52.078;11.650;2022-12-07T05:14:11;100394.69;;;1.28;100.00
14612;BME280;7392;52.078;11.650;2022-12-07T05:16:40;100401.72;;;1.31;100.00
14612;BME280;7392;52.078;11.650;2022-12-07T05:19:09;100403.53;;;1.32;100.00
14612;BME280;7392;52.078;11.650;2022-12-07T05:21:38;100410.56;;;1.35;100.00
14612;BME280;7392;52.078;11.650;2022-12-07T05:24:08;100398.38;;;1.35;100.00
14612;BME280;7392;52.078;11.650;2022-12-07T05:26:37;100401.00;;;1.35;100.00
14612;BME280;7392;52.078;11.650;2022-12-07T05:29:05;100396.75;;;1.39;100.00
14612;BME280;7392;52.078;11.650;2022-12-07T05:31:32;100392.38;;;1.39;100.00
14612;BME280;7392;52.078;11.650;2022-12-07T05:34:01;100393.25;;;1.40;100.00
14612;BME280;7392;52.078;11.650;2022-12-07T05:36:29;100388.91;;;1.39;100.00
14612;BME280;7392;52.078;11.650;2022-12-07T05:38:58;100394.06;;;1.37;100.00
14612;BME280;7392;52.078;11.650;2022-12-07T05:41:26;100393.19;;;1.37;100.00
14612;BME280;7392;52.078;11.650;2022-12-07T05:44:13;100399.25;;;1.36;100.00
14612;BME280;7392;52.078;11.650;2022-12-07T05:46:41;100403.66;;;1.37;100.00
14612;BME280;7392;52.078;11.650;2022-12-07T05:49:09;100404.56;;;1.37;100.00
14612;BME280;7392;52.078;11.650;2022-12-07T05:51:37;100404.59;;;1.39;100.00
14612;BME280;7392;52.078;11.650;2022-12-07T05:54:04;100405.53;;;1.41;100.00
14612;BME280;7392;52.078;11.650;2022-12-07T05:56:32;100401.22;;;1.43;100.00
14612;BME280;7392;52.078;11.650;2022-12-07T05:59:00;100408.25;;;1.44;100.00
14612;BME280;7392;52.078;11.650;2022-12-07T06:01:47;100403.06;;;1.45;100.00
14612;BME280;7392;52.078;11.650;2022-12-07T06:04:14;100401.31;;;1.46;100.00
14612;BME280;7392;52.078;11.650;2022-12-07T06:06:42;100400.50;;;1.48;100.00
14612;BME280;7392;52.078;11.650;2022-12-07T06:09:10;100397.88;;;1.48;100.00
14612;BME280;7392;52.078;11.650;2022-12-07T06:11:39;100398.84;;;1.51;100.00
14612;BME280;7392;52.078;11.650;2022-12-07T06:14:25;100399.75;;;1.53;100.00
14612;BME280;7392;52.078;11.650;2022-12-07T06:16:54;100398.88;;;1.52;100.00
14612;BME280;7392;52.078;11.650;2022-12-07T06:19:22;100393.66;;;1.54;100.00
14612;BME280;7392;52.078;11.650;2022-12-07T06:21:50;100394.56;;;1.54;100.00
14612;BME280;7392;52.078;11.650;2022-12-07T06:24:18;100397.16;;;1.53;100.00
14612;BME280;7392;52.078;11.650;2022-12-07T06:26:46;100398.91;;;1.54;100.00
14612;BME280;7392;52.078;11.650;2022-12-07T06:29:14;100399.75;;;1.53;100.00
14612;BME280;7392;52.078;11.650;2022-12-07T06:31:43;100403.25;;;1.53;100.00
14612;BME280;7392;52.078;11.650;2022-12-07T06:34:15;100397.97;;;1.52;100.00
14612;BME280;7392;52.078;11.650;2022-12-07T06:36:43;100392.75;;;1.52;100.00
14612;BME280;7392;52.078;11.650;2022-12-07T06:39:11;100394.47;;;1.51;100.00
14612;BME280;7392;52.078;11.650;2022-12-07T06:41:39;100396.16;;;1.49;100.00
14612;BME280;7392;52.078;11.650;2022-12-07T06:44:07;100398.78;;;1.49;100.00
14612;BME280;7392;52.078;11.650;2022-12-07T06:46:35;100390.88;;;1.47;100.00
14612;BME280;7392;52.078;11.650;2022-12-07T06:49:04;100399.66;;;1.49;100.00
14612;BME280;7392;52.078;11.650;2022-12-07T06:51:33;100394.38;;;1.48;100.00
14612;BME280;7392;52.078;11.650;2022-12-07T06:54:03;100403.09;;;1.47;100.00
14612;BME280;7392;52.078;11.650;2022-12-07T06:56:30;100388.28;;;1.47;100.00
14612;BME280;7392;52.078;11.650;2022-12-07T06:58:58;100404.91;;;1.49;100.00
14612;BME280;7392;52.078;11.650;2022-12-07T07:01:26;100402.28;;;1.49;100.00
14612;BME280;7392;52.078;11.650;2022-12-07T07:03:54;100404.13;;;1.52;100.00
14612;BME280;7392;52.078;11.650;2022-12-07T07:06:22;100400.63;;;1.53;100.00
14612;BME280;7392;52.078;11.650;2022-12-07T07:08:51;100405.88;;;1.53;100.00
14612;BME280;7392;52.078;11.650;2022-12-07T07:11:19;100407.66;;;1.54;100.00
14612;BME280;7392;52.078;11.650;2022-12-07T07:13:47;100419.88;;;1.55;100.00
14612;BME280;7392;52.078;11.650;2022-12-07T07:16:15;100413.78;;;1.55;100.00
14612;BME280;7392;52.078;11.650;2022-12-07T07:18:43;100408.53;;;1.55;100.00
14612;BME280;7392;52.078;11.650;2022-12-07T07:21:10;100422.47;;;1.54;100.00
14612;BME280;7392;52.078;11.650;2022-12-07T07:23:38;100424.19;;;1.53;100.00
14612;BME280;7392;52.078;11.650;2022-12-07T07:26:07;100424.16;;;1.52;100.00
14612;BME280;7392;52.078;11.650;2022-12-07T07:28:35;100426.72;;;1.50;100.00
14612;BME280;7392;52.078;11.650;2022-12-07T07:31:03;100426.72;;;1.50;100.00
14612;BME280;7392;52.078;11.650;2022-12-07T07:33:31;100418.81;;;1.47;100.00
14612;BME280;7392;52.078;11.650;2022-12-07T07:35:58;100424.03;;;1.47;100.00
14612;BME280;7392;52.078;11.650;2022-12-07T07:38:26;100424.06;;;1.48;100.00
14612;BME280;7392;52.078;11.650;2022-12-07T07:40:54;100423.13;;;1.46;100.00
14612;BME280;7392;52.078;11.650;2022-12-07T07:43:23;100440.63;;;1.47;100.00
14612;BME280;7392;52.078;11.650;2022-12-07T07:45:51;100434.56;;;1.50;100.00
14612;BME280;7392;52.078;11.650;2022-12-07T07:48:19;100430.25;;;1.51;100.00
14612;BME280;7392;52.078;11.650;2022-12-07T07:50:48;100431.19;;;1.53;100.00
14612;BME280;7392;52.078;11.650;2022-12-07T07:53:16;100436.47;;;1.54;100.00
14612;BME280;7392;52.078;11.650;2022-12-07T07:55:50;100433.03;;;1.57;100.00
14612;BME280;7392;52.078;11.650;2022-12-07T07:58:18;100438.31;;;1.58;100.00
14612;BME280;7392;52.078;11.650;2022-12-07T08:00:47;100440.09;;;1.59;100.00
14612;BME280;7392;52.078;11.650;2022-12-07T08:03:15;100439.25;;;1.60;100.00
14612;BME280;7392;52.078;11.650;2022-12-07T08:05:43;100434.00;;;1.60;100.00
14612;BME280;7392;52.078;11.650;2022-12-07T08:08:11;100439.28;;;1.62;100.00
14612;BME280;7392;52.078;11.650;2022-12-07T08:10:38;100437.59;;;1.64;100.00
14612;BME280;7392;52.078;11.650;2022-12-07T08:13:06;100444.66;;;1.66;100.00
14612;BME280;7392;52.078;11.650;2022-12-07T08:15:42;100448.22;;;1.68;100.00
14612;BME280;7392;52.078;11.650;2022-12-07T08:18:12;100447.44;;;1.71;100.00
14612;BME280;7392;52.078;11.650;2022-12-07T08:20:42;100449.19;;;1.72;100.00
14612;BME280;7392;52.078;11.650;2022-12-07T08:23:10;100447.50;;;1.74;100.00
14612;BME280;7392;52.078;11.650;2022-12-07T08:25:38;100440.53;;;1.75;100.00
14612;BME280;7392;52.078;11.650;2022-12-07T08:28:07;100448.44;;;1.76;100.00
14612;BME280;7392;52.078;11.650;2022-12-07T08:30:34;100439.72;;;1.77;100.00
14612;BME280;7392;52.078;11.650;2022-12-07T08:33:02;100442.41;;;1.79;100.00
14612;BME280;7392;52.078;11.650;2022-12-07T08:35:33;100450.28;;;1.80;100.00
14612;BME280;7392;52.078;11.650;2022-12-07T08:38:01;100446.84;;;1.81;100.00
14612;BME280;7392;52.078;11.650;2022-12-07T08:40:30;100453.00;;;1.83;100.00
14612;BME280;7392;52.078;11.650;2022-12-07T08:42:58;100453.94;;;1.85;100.00
14612;BME280;7392;52.078;11.650;2022-12-07T08:45:25;100445.19;;;1.85;100.00
14612;BME280;7392;52.078;11.650;2022-12-07T08:47:57;100446.16;;;1.89;100.00
14612;BME280;7392;52.078;11.650;2022-12-07T08:50:28;100441.91;;;1.92;100.00
14612;BME280;7392;52.078;11.650;2022-12-07T08:52:58;100448.13;;;1.96;100.00
14612;BME280;7392;52.078;11.650;2022-12-07T08:55:27;100452.56;;;1.98;100.00
14612;BME280;7392;52.078;11.650;2022-12-07T08:57:57;100448.25;;;2.00;100.00
14612;BME280;7392;52.078;11.650;2022-12-07T09:00:25;100445.69;;;2.02;100.00
14612;BME280;7392;52.078;11.650;2022-12-07T09:02:53;100452.72;;;2.04;100.00
14612;BME280;7392;52.078;11.650;2022-12-07T09:05:21;100457.13;;;2.05;100.00
14612;BME280;7392;52.078;11.650;2022-12-07T09:07:51;100459.75;;;2.05;100.00
14612;BME280;7392;52.078;11.650;2022-12-07T09:10:21;100460.66;;;2.08;100.00
14612;BME280;7392;52.078;11.650;2022-12-07T09:12:50;100457.16;;;2.07;100.00
14612;BME280;7392;52.078;11.650;2022-12-07T09:15:18;100462.47;;;2.09;100.00
14612;BME280;7392;52.078;11.650;2022-12-07T09:17:45;100465.97;;;2.09;100.00
14612;BME280;7392;52.078;11.650;2022-12-07T09:20:13;100466.88;;;2.11;100.00
14612;BME280;7392;52.078;11.650;2022-12-07T09:22:41;100470.38;;;2.12;100.00
14612;BME280;7392;52.078;11.650;2022-12-07T09:25:09;100475.66;;;2.13;100.00
14612;BME280;7392;52.078;11.650;2022-12-07T09:27:38;100476.56;;;2.14;100.00
14612;BME280;7392;52.078;11.650;2022-12-07T09:30:07;100479.25;;;2.17;100.00
14612;BME280;7392;52.078;11.650;2022-12-07T09:32:35;100475.84;;;2.19;100.00
14612;BME280;7392;52.078;11.650;2022-12-07T09:35:03;100466.28;;;2.21;100.00
14612;BME280;7392;52.078;11.650;2022-12-07T09:37:31;100475.13;;;2.25;100.00
14612;BME280;7392;52.078;11.650;2022-12-07T09:40:02;100477.81;;;2.28;100.00
14612;BME280;7392;52.078;11.650;2022-12-07T09:42:34;100469.13;;;2.29;100.00
14612;BME280;7392;52.078;11.650;2022-12-07T09:45:05;100466.50;;;2.29;100.00
14612;BME280;7392;52.078;11.650;2022-12-07T09:47:33;100475.25;;;2.30;100.00
14612;BME280;7392;52.078;11.650;2022-12-07T09:50:05;100464.84;;;2.33;100.00
14612;BME280;7392;52.078;11.650;2022-12-07T09:52:34;100461.41;;;2.35;100.00
14612;BME280;7392;52.078;11.650;2022-12-07T09:55:10;100457.13;;;2.39;100.00
14612;BME280;7392;52.078;11.650;2022-12-07T09:57:38;100468.56;;;2.41;100.00
14612;BME280;7392;52.078;11.650;2022-12-07T10:00:12;100471.19;;;2.41;100.00
14612;BME280;7392;52.078;11.650;2022-12-07T10:02:42;100469.50;;;2.43;100.00
14612;BME280;7392;52.078;11.650;2022-12-07T10:05:14;100462.56;;;2.45;100.00
14612;BME280;7392;52.078;11.650;2022-12-07T10:07:49;100465.22;;;2.47;100.00
14612;BME280;7392;52.078;11.650;2022-12-07T10:10:22;100460.88;;;2.49;100.00
14612;BME280;7392;52.078;11.650;2022-12-07T10:12:57;100468.81;;;2.50;100.00
14612;BME280;7392;52.078;11.650;2022-12-07T10:18:21;100453.19;;;2.55;100.00
14612;BME280;7392;52.078;11.650;2022-12-07T10:21:05;100454.94;;;2.56;100.00
14612;BME280;7392;52.078;11.650;2022-12-07T10:23:37;100462.03;;;2.58;100.00
14612;BME280;7392;52.078;11.650;2022-12-07T10:26:27;100451.59;;;2.60;100.00
14612;BME280;7392;52.078;11.650;2022-12-07T10:28:59;100453.34;;;2.61;100.00
14612;BME280;7392;52.078;11.650;2022-12-07T10:31:27;100454.28;;;2.65;100.00
14612;BME280;7392;52.078;11.650;2022-12-07T10:33:58;100456.97;;;2.66;100.00
14612;BME280;7392;52.078;11.650;2022-12-07T10:36:34;100452.66;;;2.68;100.00
14612;BME280;7392;52.078;11.650;2022-12-07T10:39:04;100455.34;;;2.71;100.00
14612;BME280;7392;52.078;11.650;2022-12-07T10:41:52;100442.34;;;2.76;100.00
14612;BME280;7392;52.078;11.650;2022-12-07T10:44:21;100446.84;;;2.81;100.00
14612;BME280;7392;52.078;11.650;2022-12-07T10:47:09;100441.69;;;2.85;100.00
14612;BME280;7392;52.078;11.650;2022-12-07T10:50:24;100437.34;;;2.87;100.00
14612;BME280;7392;52.078;11.650;2022-12-07T10:53:13;100434.84;;;2.91;100.00
14612;BME280;7392;52.078;11.650;2022-12-07T10:56:00;100438.47;;;2.96;100.00
14612;BME280;7392;52.078;11.650;2022-12-07T10:58:47;100434.34;;;3.06;100.00
14612;BME280;7392;52.078;11.650;2022-12-07T11:01:24;100431.03;;;3.15;100.00
14612;BME280;7392;52.078;11.650;2022-12-07T11:04:06;100437.28;;;3.20;100.00
14612;BME280;7392;52.078;11.650;2022-12-07T11:06:43;100435.66;;;3.25;100.00
14612;BME280;7392;52.078;11.650;2022-12-07T11:12:46;100428.84;;;3.33;100.00
14612;BME280;7392;52.078;11.650;2022-12-07T11:15:18;100431.50;;;3.35;100.00
14612;BME280;7392;52.078;11.650;2022-12-07T11:17:56;100437.66;;;3.37;100.00
14612;BME280;7392;52.078;11.650;2022-12-07T11:20:35;100429.91;;;3.42;100.00
14612;BME280;7392;52.078;11.650;2022-12-07T11:23:14;100426.41;;;3.43;100.00
14612;BME280;7392;52.078;11.650;2022-12-07T11:25:52;100434.34;;;3.46;100.00
14612;BME280;7392;52.078;11.650;2022-12-07T11:28:34;100431.75;;;3.47;100.00
14612;BME280;7392;52.078;11.650;2022-12-07T11:31:12;100434.41;;;3.49;100.00
14612;BME280;7392;52.078;11.650;2022-12-07T11:33:46;100424.84;;;3.51;100.00
14612;BME280;7392;52.078;11.650;2022-12-07T11:36:28;100425.75;;;3.53;100.00
14612;BME280;7392;52.078;11.650;2022-12-07T11:39:02;100419.63;;;3.52;100.00
14612;BME280;7392;52.078;11.650;2022-12-07T11:41:34;100418.69;;;3.50;100.00
14612;BME280;7392;52.078;11.650;2022-12-07T11:44:06;100423.94;;;3.50;100.00
14612;BME280;7392;52.078;11.650;2022-12-07T11:46:46;100430.97;;;3.51;100.00
14612;BME280;7392;52.078;11.650;2022-12-07T11:49:19;100427.53;;;3.54;100.00
14612;BME280;7392;52.078;11.650;2022-12-07T11:51:51;100428.41;;;3.54;100.00
14612;BME280;7392;52.078;11.650;2022-12-07T11:54:26;100412.63;;;3.53;100.00
14612;BME280;7392;52.078;11.650;2022-12-07T11:57:01;100417.78;;;3.50;100.00
14612;BME280;7392;52.078;11.650;2022-12-07T11:59:33;100411.66;;;3.49;100.00
14612;BME280;7392;52.078;11.650;2022-12-07T12:02:12;100424.84;;;3.51;100.00
14612;BME280;7392;52.078;11.650;2022-12-07T12:04:51;100418.78;;;3.55;100.00
14612;BME280;7392;52.078;11.650;2022-12-07T12:07:24;100424.03;;;3.55;100.00
14612;BME280;7392;52.078;11.650;2022-12-07T12:10:19;100426.69;;;3.56;100.00
14612;BME280;7392;52.078;11.650;2022-12-07T12:13:15;100418.81;;;3.56;100.00
14612;BME280;7392;52.078;11.650;2022-12-07T12:16:25;100417.97;;;3.58;100.00
14612;BME280;7392;52.078;11.650;2022-12-07T12:19:11;100420.63;;;3.59;100.00
14612;BME280;7392;52.078;11.650;2022-12-07T12:21:46;100419.78;;;3.62;100.00
14612;BME280;7392;52.078;11.650;2022-12-07T12:24:20;100412.88;;;3.65;100.00
14612;BME280;7392;52.078;11.650;2022-12-07T12:26:54;100408.63;;;3.72;100.00
14612;BME280;7392;52.078;11.650;2022-12-07T12:29:30;100404.38;;;3.79;100.00
14612;BME280;7392;52.078;11.650;2022-12-07T12:32:12;100404.47;;;3.83;100.00
14612;BME280;7392;52.078;11.650;2022-12-07T12:34:51;100399.31;;;3.88;100.00
14612;BME280;7392;52.078;11.650;2022-12-07T12:37:44;100399.31;;;3.89;100.00
14612;BME280;7392;52.078;11.650;2022-12-07T12:40:40;100396.78;;;3.94;100.00
14612;BME280;7392;52.078;11.650;2022-12-07T12:43:43;100393.22;;;3.90;100.00
14612;BME280;7392;52.078;11.650;2022-12-07T12:49:35;100400.06;;;3.82;100.00
14612;BME280;7392;52.078;11.650;2022-12-07T12:58:44;100407.25;;;3.47;100.00
14612;BME280;7392;52.078;11.650;2022-12-07T13:01:41;100396.41;;;3.33;100.00
14612;BME280;7392;52.078;11.650;2022-12-07T13:04:47;100396.22;;;3.24;100.00
14612;BME280;7392;52.078;11.650;2022-12-07T13:10:39;100382.88;;;3.13;100.00
14612;BME280;7392;52.078;11.650;2022-12-07T13:13:33;100395.94;;;3.10;100.00
14612;BME280;7392;52.078;11.650;2022-12-07T13:16:37;100387.97;;;3.07;100.00
14612;BME280;7392;52.078;11.650;2022-12-07T13:22:53;100367.81;;;3.06;100.00
14612;BME280;7392;52.078;11.650;2022-12-07T13:25:37;100373.03;;;3.03;100.00
14612;BME280;7392;52.078;11.650;2022-12-07T13:28:15;100365.97;;;3.00;100.00
14612;BME280;7392;52.078;11.650;2022-12-07T13:31:02;100359.81;;;2.98;100.00
14612;BME280;7392;52.078;11.650;2022-12-07T13:34:36;100368.47;;;2.94;100.00
14612;BME280;7392;52.078;11.650;2022-12-07T13:37:48;100372.81;;;2.93;100.00
14612;BME280;7392;52.078;11.650;2022-12-07T13:40:36;100370.97;;;2.89;100.00